sensor_id;sensor_type;location;lat;lon;timestamp;P1;durP1;ratioP1;P2;durP2;ratioP2
43793;SDS011;29414;44.798;20.366;2022-12-19T00:04:00;78.43;;;48.20;;
43793;SDS011;29414;44.798;20.366;2022-12-19T00:08:00;76.60;;;46.53;;
43793;SDS011;29414;44.798;20.366;2022-12-19T00:12:00;73.03;;;46.30;;
43793;SDS011;29414;44.798;20.366;2022-12-19T00:16:02;71.03;;;46.40;;
43793;SDS011;29414;44.798;20.366;2022-12-19T00:20:02;78.03;;;48.50;;
43793;SDS011;29414;44.798;20.366;2022-12-19T00:24:03;76.77;;;45.23;;
43793;SDS011;29414;44.798;20.366;2022-12-19T00:28:04;76.93;;;48.17;;
43793;SDS011;29414;44.798;20.366;2022-12-19T00:32:04;76.13;;;46.73;;
43793;SDS011;29414;44.798;20.366;2022-12-19T00:36:26;76.30;;;45.03;;
43793;SDS011;29414;44.798;20.366;2022-12-19T00:40:25;75.53;;;48.30;;
43793;SDS011;29414;44.798;20.366;2022-12-19T00:44:25;74.78;;;46.35;;
43793;SDS011;29414;44.798;20.366;2022-12-19T00:48:26;74.13;;;45.70;;
43793;SDS011;29414;44.798;20.366;2022-12-19T00:52:26;73.73;;;47.00;;
43793;SDS011;29414;44.798;20.366;2022-12-19T00:56:27;77.23;;;48.27;;
43793;SDS011;29414;44.798;20.366;2022-12-19T01:00:27;75.17;;;47.37;;
43793;SDS011;29414;44.798;20.366;2022-12-19T01:04:28;77.17;;;47.60;;
43793;SDS011;29414;44.798;20.366;2022-12-19T01:08:28;69.90;;;43.57;;
43793;SDS011;29414;44.798;20.366;2022-12-19T01:12:28;74.87;;;45.97;;
43793;SDS011;29414;44.798;20.366;2022-12-19T01:16:46;74.23;;;44.70;;
43793;SDS011;29414;44.798;20.366;2022-12-19T01:20:47;73.40;;;46.57;;
43793;SDS011;29414;44.798;20.366;2022-12-19T01:24:47;71.73;;;43.63;;
43793;SDS011;29414;44.798;20.366;2022-12-19T01:28:48;69.97;;;42.53;;
43793;SDS011;29414;44.798;20.366;2022-12-19T01:32:48;69.83;;;42.10;;
43793;SDS011;29414;44.798;20.366;2022-12-19T01:36:48;70.07;;;43.50;;
43793;SDS011;29414;44.798;20.366;2022-12-19T01:40:53;70.13;;;43.47;;
43793;SDS011;29414;44.798;20.366;2022-12-19T01:49:10;71.17;;;43.03;;
43793;SDS011;29414;44.798;20.366;2022-12-19T01:53:12;79.60;;;47.58;;
43793;SDS011;29414;44.798;20.366;2022-12-19T01:57:13;82.53;;;47.37;;
43793;SDS011;29414;44.798;20.366;2022-12-19T02:01:15;68.07;;;41.67;;
43793;SDS011;29414;44.798;20.366;2022-12-19T02:05:16;72.60;;;43.43;;
43793;SDS011;29414;44.798;20.366;2022-12-19T02:09:16;61.50;;;36.83;;
43793;SDS011;29414;44.798;20.366;2022-12-19T02:13:17;64.10;;;40.37;;
43793;SDS011;29414;44.798;20.366;2022-12-19T02:34:03;49.57;;;31.77;;
43793;SDS011;29414;44.798;20.366;2022-12-19T02:42:04;44.37;;;26.47;;
43793;SDS011;29414;44.798;20.366;2022-12-19T02:46:06;37.63;;;25.00;;
43793;SDS011;29414;44.798;20.366;2022-12-19T02:50:07;35.57;;;22.57;;
43793;SDS011;29414;44.798;20.366;2022-12-19T02:54:07;35.87;;;22.70;;
43793;SDS011;29414;44.798;20.366;2022-12-19T02:58:19;36.53;;;21.93;;
43793;SDS011;29414;44.798;20.366;2022-12-19T03:06:25;39.40;;;23.45;;
43793;SDS011;29414;44.798;20.366;2022-12-19T03:14:30;39.60;;;22.90;;
43793;SDS011;29414;44.798;20.366;2022-12-19T03:18:32;36.37;;;22.73;;
43793;SDS011;29414;44.798;20.366;2022-12-19T03:22:32;31.17;;;20.43;;
43793;SDS011;29414;44.798;20.366;2022-12-19T03:26:37;34.10;;;21.80;;
43793;SDS011;29414;44.798;20.366;2022-12-19T03:30:40;34.45;;;21.00;;
43793;SDS011;29414;44.798;20.366;2022-12-19T03:34:51;31.83;;;19.93;;
43793;SDS011;29414;44.798;20.366;2022-12-19T03:38:52;31.63;;;19.13;;
43793;SDS011;29414;44.798;20.366;2022-12-19T03:42:59;34.10;;;20.50;;
43793;SDS011;29414;44.798;20.366;2022-12-19T03:47:14;32.70;;;19.93;;
43793;SDS011;29414;44.798;20.366;2022-12-19T03:59:59;34.77;;;20.70;;
43793;SDS011;29414;44.798;20.366;2022-12-19T04:04:01;34.83;;;20.80;;
43793;SDS011;29414;44.798;20.366;2022-12-19T04:08:03;35.57;;;20.63;;
43793;SDS011;29414;44.798;20.366;2022-12-19T04:12:05;34.83;;;20.63;;
43793;SDS011;29414;44.798;20.366;2022-12-19T04:20:11;31.60;;;20.93;;
43793;SDS011;29414;44.798;20.366;2022-12-19T04:24:14;31.63;;;19.87;;
43793;SDS011;29414;44.798;20.366;2022-12-19T04:28:17;33.97;;;21.00;;
43793;SDS011;29414;44.798;20.366;2022-12-19T04:32:26;32.40;;;20.00;;
43793;SDS011;29414;44.798;20.366;2022-12-19T04:36:26;34.33;;;20.80;;
43793;SDS011;29414;44.798;20.366;2022-12-19T04:40:27;33.97;;;21.50;;
43793;SDS011;29414;44.798;20.366;2022-12-19T04:44:27;52.20;;;29.70;;
43793;SDS011;29414;44.798;20.366;2022-12-19T04:48:27;67.17;;;39.47;;
43793;SDS011;29414;44.798;20.366;2022-12-19T04:52:27;68.50;;;41.90;;
43793;SDS011;29414;44.798;20.366;2022-12-19T04:56:28;71.60;;;43.85;;
43793;SDS011;29414;44.798;20.366;2022-12-19T05:00:28;70.83;;;42.93;;
43793;SDS011;29414;44.798;20.366;2022-12-19T05:04:28;74.37;;;45.23;;
43793;SDS011;29414;44.798;20.366;2022-12-19T05:08:28;80.60;;;48.23;;
43793;SDS011;29414;44.798;20.366;2022-12-19T05:12:29;78.87;;;46.60;;
43793;SDS011;29414;44.798;20.366;2022-12-19T05:16:29;75.57;;;47.23;;
43793;SDS011;29414;44.798;20.366;2022-12-19T05:20:29;78.63;;;45.17;;
43793;SDS011;29414;44.798;20.366;2022-12-19T05:24:30;78.73;;;46.53;;
43793;SDS011;29414;44.798;20.366;2022-12-19T05:28:30;75.37;;;44.33;;
43793;SDS011;29414;44.798;20.366;2022-12-19T05:32:31;76.60;;;44.37;;
43793;SDS011;29414;44.798;20.366;2022-12-19T05:36:32;72.60;;;44.17;;
43793;SDS011;29414;44.798;20.366;2022-12-19T05:40:32;74.57;;;43.97;;
43793;SDS011;29414;44.798;20.366;2022-12-19T05:44:33;74.50;;;43.90;;
43793;SDS011;29414;44.798;20.366;2022-12-19T05:48:33;74.73;;;43.40;;
43793;SDS011;29414;44.798;20.366;2022-12-19T05:52:35;74.87;;;45.60;;
43793;SDS011;29414;44.798;20.366;2022-12-19T05:56:35;74.60;;;44.70;;
43793;SDS011;29414;44.798;20.366;2022-12-19T06:00:35;75.70;;;45.60;;
43793;SDS011;29414;44.798;20.366;2022-12-19T06:04:36;81.83;;;47.63;;
43793;SDS011;29414;44.798;20.366;2022-12-19T06:08:36;80.53;;;46.97;;
43793;SDS011;29414;44.798;20.366;2022-12-19T06:12:37;77.03;;;45.50;;
43793;SDS011;29414;44.798;20.366;2022-12-19T06:16:37;78.87;;;45.73;;
43793;SDS011;29414;44.798;20.366;2022-12-19T06:20:37;73.07;;;44.33;;
43793;SDS011;29414;44.798;20.366;2022-12-19T06:24:38;71.50;;;43.10;;
43793;SDS011;29414;44.798;20.366;2022-12-19T06:28:38;64.10;;;40.00;;
43793;SDS011;29414;44.798;20.366;2022-12-19T06:32:38;62.40;;;37.17;;
43793;SDS011;29414;44.798;20.366;2022-12-19T06:36:41;68.97;;;41.80;;
43793;SDS011;29414;44.798;20.366;2022-12-19T06:40:42;66.77;;;40.17;;
43793;SDS011;29414;44.798;20.366;2022-12-19T06:45:01;66.53;;;39.83;;
43793;SDS011;29414;44.798;20.366;2022-12-19T06:49:02;71.20;;;41.13;;
43793;SDS011;29414;44.798;20.366;2022-12-19T06:53:04;61.57;;;39.30;;
43793;SDS011;29414;44.798;20.366;2022-12-19T06:57:04;65.60;;;40.20;;
43793;SDS011;29414;44.798;20.366;2022-12-19T07:01:04;71.77;;;44.17;;
43793;SDS011;29414;44.798;20.366;2022-12-19T07:05:05;75.97;;;39.70;;
43793;SDS011;29414;44.798;20.366;2022-12-19T07:09:05;65.27;;;39.80;;
43793;SDS011;29414;44.798;20.366;2022-12-19T07:13:06;67.57;;;41.50;;
43793;SDS011;29414;44.798;20.366;2022-12-19T07:17:06;63.70;;;38.77;;
43793;SDS011;29414;44.798;20.366;2022-12-19T07:21:07;61.37;;;38.00;;
43793;SDS011;29414;44.798;20.366;2022-12-19T07:25:10;58.20;;;36.10;;
43793;SDS011;29414;44.798;20.366;2022-12-19T07:29:10;58.93;;;35.30;;
43793;SDS011;29414;44.798;20.366;2022-12-19T07:33:11;57.07;;;34.30;;
43793;SDS011;29414;44.798;20.366;2022-12-19T07:37:11;53.20;;;33.93;;
43793;SDS011;29414;44.798;20.366;2022-12-19T07:41:11;50.03;;;32.40;;
43793;SDS011;29414;44.798;20.366;2022-12-19T07:45:12;49.03;;;31.53;;
43793;SDS011;29414;44.798;20.366;2022-12-19T07:53:51;46.47;;;29.57;;
43793;SDS011;29414;44.798;20.366;2022-12-19T07:57:51;45.17;;;28.30;;
43793;SDS011;29414;44.798;20.366;2022-12-19T08:01:52;43.87;;;30.07;;
43793;SDS011;29414;44.798;20.366;2022-12-19T08:05:57;43.67;;;27.80;;
43793;SDS011;29414;44.798;20.366;2022-12-19T08:09:59;40.83;;;27.17;;
43793;SDS011;29414;44.798;20.366;2022-12-19T08:13:59;42.83;;;27.90;;
43793;SDS011;29414;44.798;20.366;2022-12-19T08:18:00;39.23;;;27.30;;
43793;SDS011;29414;44.798;20.366;2022-12-19T08:22:01;37.87;;;27.50;;
43793;SDS011;29414;44.798;20.366;2022-12-19T08:26:02;33.30;;;23.87;;
43793;SDS011;29414;44.798;20.366;2022-12-19T08:30:03;34.43;;;23.60;;
43793;SDS011;29414;44.798;20.366;2022-12-19T08:34:03;30.67;;;21.40;;
43793;SDS011;29414;44.798;20.366;2022-12-19T08:38:04;34.10;;;23.17;;
43793;SDS011;29414;44.798;20.366;2022-12-19T08:42:05;30.70;;;23.67;;
43793;SDS011;29414;44.798;20.366;2022-12-19T08:46:05;33.00;;;23.07;;
43793;SDS011;29414;44.798;20.366;2022-12-19T08:50:06;33.70;;;22.03;;
43793;SDS011;29414;44.798;20.366;2022-12-19T08:54:06;35.87;;;24.63;;
43793;SDS011;29414;44.798;20.366;2022-12-19T08:58:07;31.53;;;22.20;;
43793;SDS011;29414;44.798;20.366;2022-12-19T09:02:07;36.47;;;23.13;;
43793;SDS011;29414;44.798;20.366;2022-12-19T09:06:08;31.10;;;21.70;;
43793;SDS011;29414;44.798;20.366;2022-12-19T09:10:09;30.27;;;20.97;;
43793;SDS011;29414;44.798;20.366;2022-12-19T09:14:09;31.07;;;20.70;;
43793;SDS011;29414;44.798;20.366;2022-12-19T09:18:09;31.33;;;22.23;;
43793;SDS011;29414;44.798;20.366;2022-12-19T09:22:10;31.20;;;21.70;;
43793;SDS011;29414;44.798;20.366;2022-12-19T09:26:11;32.03;;;22.53;;
43793;SDS011;29414;44.798;20.366;2022-12-19T09:30:11;29.07;;;21.17;;
43793;SDS011;29414;44.798;20.366;2022-12-19T09:34:12;30.30;;;22.17;;
43793;SDS011;29414;44.798;20.366;2022-12-19T09:38:12;33.40;;;23.00;;
43793;SDS011;29414;44.798;20.366;2022-12-19T09:50:48;26.43;;;19.50;;
43793;SDS011;29414;44.798;20.366;2022-12-19T09:54:55;33.40;;;20.70;;
43793;SDS011;29414;44.798;20.366;2022-12-19T09:59:01;28.27;;;21.07;;
43793;SDS011;29414;44.798;20.366;2022-12-19T10:03:04;28.33;;;19.88;;
43793;SDS011;29414;44.798;20.366;2022-12-19T10:07:07;27.40;;;18.43;;
43793;SDS011;29414;44.798;20.366;2022-12-19T10:15:16;34.83;;;21.92;;
43793;SDS011;29414;44.798;20.366;2022-12-19T10:31:56;28.00;;;18.88;;
43793;SDS011;29414;44.798;20.366;2022-12-19T10:35:58;23.70;;;17.23;;
43793;SDS011;29414;44.798;20.366;2022-12-19T10:40:05;24.03;;;17.00;;
43793;SDS011;29414;44.798;20.366;2022-12-19T10:44:10;28.37;;;18.53;;
43793;SDS011;29414;44.798;20.366;2022-12-19T10:48:14;24.67;;;15.77;;
43793;SDS011;29414;44.798;20.366;2022-12-19T10:52:15;23.27;;;16.50;;
43793;SDS011;29414;44.798;20.366;2022-12-19T10:56:36;24.17;;;17.70;;
43793;SDS011;29414;44.798;20.366;2022-12-19T11:00:36;23.80;;;16.57;;
43793;SDS011;29414;44.798;20.366;2022-12-19T11:04:37;24.30;;;17.50;;
43793;SDS011;29414;44.798;20.366;2022-12-19T11:08:38;25.87;;;17.87;;
43793;SDS011;29414;44.798;20.366;2022-12-19T11:12:38;25.80;;;17.70;;
43793;SDS011;29414;44.798;20.366;2022-12-19T11:16:50;26.73;;;17.93;;
43793;SDS011;29414;44.798;20.366;2022-12-19T11:25:16;23.97;;;17.43;;
43793;SDS011;29414;44.798;20.366;2022-12-19T11:29:27;25.60;;;17.90;;
43793;SDS011;29414;44.798;20.366;2022-12-19T11:33:37;23.13;;;17.53;;
43793;SDS011;29414;44.798;20.366;2022-12-19T11:37:38;29.10;;;17.93;;
43793;SDS011;29414;44.798;20.366;2022-12-19T11:41:43;24.80;;;17.20;;
43793;SDS011;29414;44.798;20.366;2022-12-19T11:50:00;24.45;;;17.38;;
43793;SDS011;29414;44.798;20.366;2022-12-19T11:58:02;22.23;;;16.80;;
43793;SDS011;29414;44.798;20.366;2022-12-19T12:06:17;25.97;;;17.47;;
43793;SDS011;29414;44.798;20.366;2022-12-19T12:10:18;26.67;;;18.40;;
43793;SDS011;29414;44.798;20.366;2022-12-19T12:14:20;24.90;;;17.13;;
43793;SDS011;29414;44.798;20.366;2022-12-19T12:30:57;27.53;;;20.40;;
43793;SDS011;29414;44.798;20.366;2022-12-19T12:39:04;30.42;;;21.23;;
43793;SDS011;29414;44.798;20.366;2022-12-19T12:47:24;29.05;;;18.58;;
43793;SDS011;29414;44.798;20.366;2022-12-19T12:51:25;27.63;;;18.80;;
43793;SDS011;29414;44.798;20.366;2022-12-19T12:55:30;28.70;;;19.63;;
43793;SDS011;29414;44.798;20.366;2022-12-19T12:59:31;29.67;;;20.33;;
43793;SDS011;29414;44.798;20.366;2022-12-19T13:03:31;26.60;;;19.37;;
43793;SDS011;29414;44.798;20.366;2022-12-19T13:07:42;29.47;;;20.23;;
43793;SDS011;29414;44.798;20.366;2022-12-19T13:11:46;31.03;;;21.47;;
43793;SDS011;29414;44.798;20.366;2022-12-19T13:16:46;28.23;;;19.63;;
43793;SDS011;29414;44.798;20.366;2022-12-19T13:24:27;28.95;;;20.10;;
43793;SDS011;29414;44.798;20.366;2022-12-19T13:28:37;27.70;;;19.47;;
43793;SDS011;29414;44.798;20.366;2022-12-19T13:44:55;28.42;;;20.30;;
43793;SDS011;29414;44.798;20.366;2022-12-19T13:49:31;25.77;;;18.73;;
43793;SDS011;29414;44.798;20.366;2022-12-19T13:53:24;28.40;;;20.10;;
43793;SDS011;29414;44.798;20.366;2022-12-19T13:57:29;27.90;;;19.67;;
43793;SDS011;29414;44.798;20.366;2022-12-19T14:01:33;30.60;;;21.87;;
43793;SDS011;29414;44.798;20.366;2022-12-19T14:05:37;30.67;;;20.40;;
43793;SDS011;29414;44.798;20.366;2022-12-19T14:09:41;30.17;;;20.10;;
43793;SDS011;29414;44.798;20.366;2022-12-19T14:13:44;35.60;;;23.83;;
43793;SDS011;29414;44.798;20.366;2022-12-19T14:18:22;34.30;;;22.47;;
43793;SDS011;29414;44.798;20.366;2022-12-19T14:22:23;34.73;;;24.50;;
43793;SDS011;29414;44.798;20.366;2022-12-19T14:26:26;32.10;;;22.83;;
43793;SDS011;29414;44.798;20.366;2022-12-19T14:30:29;34.17;;;23.80;;
43793;SDS011;29414;44.798;20.366;2022-12-19T14:34:31;36.03;;;25.20;;
43793;SDS011;29414;44.798;20.366;2022-12-19T14:38:32;34.23;;;24.40;;
43793;SDS011;29414;44.798;20.366;2022-12-19T14:42:33;35.73;;;25.43;;
43793;SDS011;29414;44.798;20.366;2022-12-19T14:47:12;38.80;;;23.43;;
43793;SDS011;29414;44.798;20.366;2022-12-19T14:51:13;33.97;;;23.63;;
43793;SDS011;29414;44.798;20.366;2022-12-19T14:59:20;34.38;;;24.52;;
43793;SDS011;29414;44.798;20.366;2022-12-19T15:03:24;34.67;;;24.77;;
43793;SDS011;29414;44.798;20.366;2022-12-19T15:07:28;37.93;;;25.67;;
43793;SDS011;29414;44.798;20.366;2022-12-19T15:11:41;39.73;;;25.73;;
43793;SDS011;29414;44.798;20.366;2022-12-19T15:16:01;36.77;;;26.17;;
43793;SDS011;29414;44.798;20.366;2022-12-19T15:20:02;33.13;;;24.30;;
43793;SDS011;29414;44.798;20.366;2022-12-19T15:24:02;38.30;;;25.80;;
43793;SDS011;29414;44.798;20.366;2022-12-19T15:29:05;38.03;;;25.50;;
43793;SDS011;29414;44.798;20.366;2022-12-19T15:32:32;36.83;;;26.17;;
43793;SDS011;29414;44.798;20.366;2022-12-19T15:36:33;40.73;;;26.73;;
43793;SDS011;29414;44.798;20.366;2022-12-19T15:40:33;39.37;;;27.97;;
43793;SDS011;29414;44.798;20.366;2022-12-19T15:44:34;42.77;;;28.33;;
43793;SDS011;29414;44.798;20.366;2022-12-19T15:48:36;39.13;;;26.17;;
43793;SDS011;29414;44.798;20.366;2022-12-19T15:52:38;40.30;;;26.17;;
43793;SDS011;29414;44.798;20.366;2022-12-19T15:56:39;39.57;;;26.70;;
43793;SDS011;29414;44.798;20.366;2022-12-19T16:00:42;38.53;;;25.00;;
43793;SDS011;29414;44.798;20.366;2022-12-19T16:04:44;37.47;;;25.83;;
43793;SDS011;29414;44.798;20.366;2022-12-19T16:08:45;37.23;;;25.77;;
43793;SDS011;29414;44.798;20.366;2022-12-19T16:12:49;38.20;;;24.53;;
43793;SDS011;29414;44.798;20.366;2022-12-19T16:16:53;36.10;;;24.77;;
43793;SDS011;29414;44.798;20.366;2022-12-19T16:20:54;38.30;;;25.20;;
43793;SDS011;29414;44.798;20.366;2022-12-19T16:24:54;30.70;;;21.53;;
43793;SDS011;29414;44.798;20.366;2022-12-19T16:28:54;36.37;;;23.33;;
43793;SDS011;29414;44.798;20.366;2022-12-19T16:32:55;30.57;;;22.17;;
43793;SDS011;29414;44.798;20.366;2022-12-19T16:36:55;33.27;;;22.13;;
43793;SDS011;29414;44.798;20.366;2022-12-19T16:40:55;35.33;;;25.00;;
43793;SDS011;29414;44.798;20.366;2022-12-19T16:44:56;31.17;;;21.90;;
43793;SDS011;29414;44.798;20.366;2022-12-19T16:48:56;33.23;;;22.10;;
43793;SDS011;29414;44.798;20.366;2022-12-19T16:52:56;29.97;;;21.40;;
43793;SDS011;29414;44.798;20.366;2022-12-19T16:56:57;33.17;;;21.50;;
43793;SDS011;29414;44.798;20.366;2022-12-19T17:00:57;33.53;;;22.73;;
43793;SDS011;29414;44.798;20.366;2022-12-19T17:04:57;32.03;;;21.13;;
43793;SDS011;29414;44.798;20.366;2022-12-19T17:08:58;37.77;;;26.53;;
43793;SDS011;29414;44.798;20.366;2022-12-19T17:12:58;36.90;;;26.27;;
43793;SDS011;29414;44.798;20.366;2022-12-19T17:17:00;42.20;;;28.43;;
43793;SDS011;29414;44.798;20.366;2022-12-19T17:21:01;40.70;;;26.77;;
43793;SDS011;29414;44.798;20.366;2022-12-19T17:25:04;41.43;;;27.87;;
43793;SDS011;29414;44.798;20.366;2022-12-19T17:29:10;38.57;;;26.97;;
43793;SDS011;29414;44.798;20.366;2022-12-19T17:33:11;42.10;;;26.80;;
43793;SDS011;29414;44.798;20.366;2022-12-19T17:37:13;39.13;;;23.97;;
43793;SDS011;29414;44.798;20.366;2022-12-19T17:41:15;38.67;;;25.83;;
43793;SDS011;29414;44.798;20.366;2022-12-19T17:45:15;33.43;;;22.90;;
43793;SDS011;29414;44.798;20.366;2022-12-19T17:49:17;36.97;;;23.53;;
43793;SDS011;29414;44.798;20.366;2022-12-19T17:53:19;32.43;;;20.50;;
43793;SDS011;29414;44.798;20.366;2022-12-19T17:57:20;30.70;;;20.60;;
43793;SDS011;29414;44.798;20.366;2022-12-19T18:01:21;28.13;;;19.63;;
43793;SDS011;29414;44.798;20.366;2022-12-19T18:05:23;27.47;;;18.87;;
43793;SDS011;29414;44.798;20.366;2022-12-19T18:09:25;28.03;;;18.50;;
43793;SDS011;29414;44.798;20.366;2022-12-19T18:13:25;25.53;;;17.07;;
43793;SDS011;29414;44.798;20.366;2022-12-19T18:17:26;22.30;;;16.10;;
43793;SDS011;29414;44.798;20.366;2022-12-19T18:21:29;20.77;;;15.30;;
43793;SDS011;29414;44.798;20.366;2022-12-19T18:25:30;23.00;;;15.57;;
43793;SDS011;29414;44.798;20.366;2022-12-19T18:29:31;19.40;;;14.33;;
43793;SDS011;29414;44.798;20.366;2022-12-19T18:33:34;21.50;;;14.90;;
43793;SDS011;29414;44.798;20.366;2022-12-19T18:37:35;24.17;;;15.13;;
43793;SDS011;29414;44.798;20.366;2022-12-19T18:41:36;22.30;;;14.93;;
43793;SDS011;29414;44.798;20.366;2022-12-19T18:45:37;22.70;;;14.87;;
43793;SDS011;29414;44.798;20.366;2022-12-19T18:49:38;21.97;;;15.30;;
43793;SDS011;29414;44.798;20.366;2022-12-19T18:53:42;23.30;;;15.53;;
43793;SDS011;29414;44.798;20.366;2022-12-19T18:57:43;22.77;;;14.80;;
43793;SDS011;29414;44.798;20.366;2022-12-19T19:01:44;23.60;;;15.87;;
43793;SDS011;29414;44.798;20.366;2022-12-19T19:05:45;22.53;;;14.73;;
43793;SDS011;29414;44.798;20.366;2022-12-19T19:09:48;25.13;;;14.77;;
43793;SDS011;29414;44.798;20.366;2022-12-19T19:13:49;27.33;;;16.63;;
43793;SDS011;29414;44.798;20.366;2022-12-19T19:17:50;23.97;;;15.93;;
43793;SDS011;29414;44.798;20.366;2022-12-19T19:21:52;24.73;;;15.87;;
43793;SDS011;29414;44.798;20.366;2022-12-19T19:25:53;26.30;;;16.77;;
43793;SDS011;29414;44.798;20.366;2022-12-19T19:29:53;23.73;;;15.37;;
43793;SDS011;29414;44.798;20.366;2022-12-19T19:34:39;22.87;;;14.57;;
43793;SDS011;29414;44.798;20.366;2022-12-19T19:38:14;25.03;;;16.67;;
43793;SDS011;29414;44.798;20.366;2022-12-19T19:42:15;26.63;;;15.97;;
43793;SDS011;29414;44.798;20.366;2022-12-19T19:46:17;24.87;;;15.40;;
43793;SDS011;29414;44.798;20.366;2022-12-19T19:50:17;24.87;;;17.03;;
43793;SDS011;29414;44.798;20.366;2022-12-19T19:54:18;26.17;;;16.57;;
43793;SDS011;29414;44.798;20.366;2022-12-19T19:58:18;24.07;;;15.10;;
43793;SDS011;29414;44.798;20.366;2022-12-19T20:02:18;25.23;;;15.93;;
43793;SDS011;29414;44.798;20.366;2022-12-19T20:06:18;26.57;;;16.17;;
43793;SDS011;29414;44.798;20.366;2022-12-19T20:10:19;24.03;;;15.57;;
43793;SDS011;29414;44.798;20.366;2022-12-19T20:14:19;25.00;;;15.30;;
43793;SDS011;29414;44.798;20.366;2022-12-19T20:18:19;26.67;;;16.67;;
43793;SDS011;29414;44.798;20.366;2022-12-19T20:22:20;28.53;;;17.63;;
43793;SDS011;29414;44.798;20.366;2022-12-19T20:26:20;27.67;;;16.70;;
43793;SDS011;29414;44.798;20.366;2022-12-19T20:30:20;25.07;;;17.10;;
43793;SDS011;29414;44.798;20.366;2022-12-19T20:34:21;26.00;;;17.10;;
43793;SDS011;29414;44.798;20.366;2022-12-19T20:38:21;26.23;;;17.10;;
43793;SDS011;29414;44.798;20.366;2022-12-19T20:42:22;26.30;;;17.13;;
43793;SDS011;29414;44.798;20.366;2022-12-19T20:46:22;24.30;;;16.37;;
43793;SDS011;29414;44.798;20.366;2022-12-19T20:50:22;24.13;;;16.37;;
43793;SDS011;29414;44.798;20.366;2022-12-19T20:54:23;26.73;;;17.17;;
43793;SDS011;29414;44.798;20.366;2022-12-19T20:58:23;26.77;;;16.37;;
43793;SDS011;29414;44.798;20.366;2022-12-19T21:02:24;25.70;;;16.83;;
43793;SDS011;29414;44.798;20.366;2022-12-19T21:06:24;25.07;;;16.17;;
43793;SDS011;29414;44.798;20.366;2022-12-19T21:10:26;26.20;;;16.37;;
43793;SDS011;29414;44.798;20.366;2022-12-19T21:14:26;27.33;;;16.97;;
43793;SDS011;29414;44.798;20.366;2022-12-19T21:18:26;28.90;;;17.43;;
43793;SDS011;29414;44.798;20.366;2022-12-19T21:22:27;25.13;;;15.90;;
43793;SDS011;29414;44.798;20.366;2022-12-19T21:26:27;26.20;;;14.77;;
43793;SDS011;29414;44.798;20.366;2022-12-19T21:30:28;23.70;;;15.30;;
43793;SDS011;29414;44.798;20.366;2022-12-19T21:34:28;26.40;;;16.40;;
43793;SDS011;29414;44.798;20.366;2022-12-19T21:38:28;24.80;;;17.10;;
43793;SDS011;29414;44.798;20.366;2022-12-19T21:42:29;24.27;;;15.53;;
43793;SDS011;29414;44.798;20.366;2022-12-19T21:46:30;26.17;;;15.53;;
43793;SDS011;29414;44.798;20.366;2022-12-19T21:50:32;25.20;;;15.67;;
43793;SDS011;29414;44.798;20.366;2022-12-19T21:54:32;23.13;;;14.63;;
43793;SDS011;29414;44.798;20.366;2022-12-19T21:58:33;22.67;;;15.67;;
43793;SDS011;29414;44.798;20.366;2022-12-19T22:02:33;22.67;;;13.77;;
43793;SDS011;29414;44.798;20.366;2022-12-19T22:06:35;25.47;;;15.30;;
43793;SDS011;29414;44.798;20.366;2022-12-19T22:10:37;23.53;;;14.97;;
43793;SDS011;29414;44.798;20.366;2022-12-19T22:14:37;22.87;;;15.33;;
43793;SDS011;29414;44.798;20.366;2022-12-19T22:18:37;23.83;;;13.97;;
43793;SDS011;29414;44.798;20.366;2022-12-19T22:22:38;22.03;;;14.27;;
43793;SDS011;29414;44.798;20.366;2022-12-19T22:26:39;24.40;;;14.93;;
43793;SDS011;29414;44.798;20.366;2022-12-19T22:30:39;24.17;;;15.77;;
43793;SDS011;29414;44.798;20.366;2022-12-19T22:34:39;25.50;;;15.93;;
43793;SDS011;29414;44.798;20.366;2022-12-19T22:38:40;24.80;;;17.10;;
43793;SDS011;29414;44.798;20.366;2022-12-19T22:42:40;23.17;;;16.30;;
43793;SDS011;29414;44.798;20.366;2022-12-19T22:46:41;22.87;;;15.37;;
43793;SDS011;29414;44.798;20.366;2022-12-19T22:50:44;27.60;;;17.27;;
43793;SDS011;29414;44.798;20.366;2022-12-19T22:54:45;26.23;;;15.73;;
43793;SDS011;29414;44.798;20.366;2022-12-19T22:58:47;25.67;;;16.73;;
43793;SDS011;29414;44.798;20.366;2022-12-19T23:02:47;24.20;;;15.20;;
43793;SDS011;29414;44.798;20.366;2022-12-19T23:06:48;24.00;;;16.60;;
43793;SDS011;29414;44.798;20.366;2022-12-19T23:10:49;22.27;;;15.53;;
43793;SDS011;29414;44.798;20.366;2022-12-19T23:14:49;24.80;;;16.70;;
43793;SDS011;29414;44.798;20.366;2022-12-19T23:18:49;24.03;;;16.13;;
43793;SDS011;29414;44.798;20.366;2022-12-19T23:22:49;24.83;;;15.97;;
43793;SDS011;29414;44.798;20.366;2022-12-19T23:26:50;28.53;;;15.93;;
43793;SDS011;29414;44.798;20.366;2022-12-19T23:30:50;29.13;;;17.50;;
43793;SDS011;29414;44.798;20.366;2022-12-19T23:34:50;25.33;;;17.23;;
43793;SDS011;29414;44.798;20.366;2022-12-19T23:38:54;24.40;;;15.23;;
43793;SDS011;29414;44.798;20.366;2022-12-19T23:42:54;23.80;;;16.20;;
43793;SDS011;29414;44.798;20.366;2022-12-19T23:46:55;22.30;;;15.60;;
43793;SDS011;29414;44.798;20.366;2022-12-19T23:51:09;22.73;;;14.90;;
43793;SDS011;29414;44.798;20.366;2022-12-19T23:55:10;23.07;;;15.03;;
43793;SDS011;29414;44.798;20.366;2022-12-19T23:59:10;20.07;;;14.13;;
